Time;durP1;ratioP1;P1;durP2;ratioP2;P2;SDS_P1;SDS_P2;PMS_P1;PMS_P2;Temp;Humidity;BMP_temperature;BMP_pressure;BME280_temperature;BME280_humidity;BME280_pressure;Samples;Min_cycle;Max_cycle;Signal;HPM_P1;HPM_P2
2022/04/14 00:01:26;;;;;;;21.60;12.00;;;;;;;14.53;100.00;100948.84;5188748;28;20623;-78
2022/04/14 00:03:56;;;;;;;20.23;11.45;;;;;;;14.50;100.00;100946.38;5207194;28;20081;-77
2022/04/14 00:06:26;;;;;;;18.88;11.88;;;;;;;14.39;100.00;100951.28;5197707;28;20025;-78
2022/04/14 00:08:57;;;;;;;19.98;11.32;;;;;;;14.42;100.00;100944.09;5203739;28;20022;-78
2022/04/14 00:11:27;;;;;;;18.38;11.23;;;;;;;14.37;100.00;100950.47;5205982;28;20029;-78
2022/04/14 00:13:57;;;;;;;24.45;11.80;;;;;;;14.35;100.00;100940.03;5199081;28;20035;-77
2022/04/14 00:16:28;;;;;;;18.48;11.23;;;;;;;14.34;100.00;100948.00;5183041;28;20712;-76
2022/04/14 00:18:58;;;;;;;19.55;9.85;;;;;;;14.24;100.00;100954.59;5176386;28;20022;-78
2022/04/14 00:21:28;;;;;;;16.77;9.55;;;;;;;14.25;100.00;100961.56;5180679;28;20025;-77
2022/04/14 00:23:59;;;;;;;15.85;9.27;;;;;;;14.17;100.00;100956.63;5199014;28;20025;-77
2022/04/14 00:26:29;;;;;;;15.80;8.93;;;;;;;14.13;100.00;100951.53;5206104;28;20021;-78
2022/04/14 00:28:59;;;;;;;17.50;8.82;;;;;;;14.15;100.00;100952.31;5186623;28;20039;-78
2022/04/14 00:31:30;;;;;;;14.13;7.57;;;;;;;14.17;100.00;100961.91;5206217;28;20037;-78
2022/04/14 00:34:00;;;;;;;14.50;7.63;;;;;;;14.14;100.00;100964.63;5206114;28;20033;-77
2022/04/14 00:36:33;;;;;;;17.90;7.87;;;;;;;14.06;100.00;100971.16;5197070;28;20365;-77
2022/04/14 00:39:03;;;;;;;17.98;7.07;;;;;;;14.07;100.00;100955.28;5202456;28;20709;-77
2022/04/14 00:41:34;;;;;;;11.68;7.15;;;;;;;13.94;100.00;100966.41;5205711;28;20055;-79
2022/04/14 00:44:05;;;;;;;12.75;6.63;;;;;;;14.03;100.00;100956.34;5180191;28;20033;-80
2022/04/14 00:46:36;;;;;;;10.75;5.80;;;;;;;14.02;100.00;100962.53;5186295;28;20036;-79
2022/04/14 00:49:06;;;;;;;12.50;6.50;;;;;;;14.06;100.00;100958.00;5188523;28;20120;-78
2022/04/14 00:51:36;;;;;;;11.20;5.45;;;;;;;13.85;100.00;100957.16;5205847;28;20333;-78
2022/04/14 00:54:06;;;;;;;13.85;6.68;;;;;;;13.82;100.00;100959.03;5206198;28;20120;-76
2022/04/14 00:56:37;;;;;;;15.60;6.40;;;;;;;13.97;100.00;100964.50;5187559;28;20064;-78
2022/04/14 00:59:07;;;;;;;11.57;6.15;;;;;;;13.99;100.00;100969.69;5188680;28;20026;-79
2022/04/14 01:01:37;;;;;;;13.40;6.15;;;;;;;13.96;100.00;100975.06;5205330;28;20036;-78
2022/04/14 01:04:11;;;;;;;9.95;5.70;;;;;;;13.88;100.00;100966.69;5205780;28;20126;-79
2022/04/14 01:06:41;;;;;;;9.95;5.40;;;;;;;13.83;100.00;100966.00;5196420;28;20028;-77
2022/04/14 01:09:16;;;;;;;11.05;5.03;;;;;;;13.88;100.00;100979.81;5202038;28;20029;-78
2022/04/14 01:11:49;;;;;;;9.73;5.25;;;;;;;13.80;100.00;100972.25;5186327;28;20108;-79
2022/04/14 01:14:29;;;;;;;10.90;4.90;;;;;;;13.84;100.00;100972.97;5195803;28;20022;-79
2022/04/14 01:17:05;;;;;;;10.60;5.15;;;;;;;13.80;100.00;100981.91;5182437;28;20550;-77
2022/04/14 01:19:37;;;;;;;10.55;4.80;;;;;;;13.66;100.00;100985.13;5205075;28;20029;-79
2022/04/14 01:22:11;;;;;;;9.55;5.03;;;;;;;13.82;100.00;100977.44;5205299;28;20438;-79
2022/04/14 01:24:42;;;;;;;9.25;4.50;;;;;;;13.80;100.00;100982.78;5188309;28;20277;-80
2022/04/14 01:27:12;;;;;;;12.35;4.50;;;;;;;13.79;100.00;100975.81;5205114;28;20033;-78
2022/04/14 01:29:43;;;;;;;13.75;5.63;;;;;;;13.62;100.00;100987.91;5204855;28;20044;-78
2022/04/14 01:32:13;;;;;;;8.82;4.55;;;;;;;13.79;100.00;100983.69;5186154;28;20075;-79
2022/04/14 01:34:43;;;;;;;7.80;4.27;;;;;;;13.59;100.00;100982.81;5182506;28;20053;-79
2022/04/14 01:37:14;;;;;;;10.57;4.50;;;;;;;13.49;100.00;100984.94;5192888;28;20264;-79
2022/04/14 01:39:45;;;;;;;7.43;3.92;;;;;;;13.41;100.00;100988.81;5184678;28;20032;-79
2022/04/14 01:42:15;;;;;;;9.02;4.60;;;;;;;13.48;100.00;100991.13;5198496;28;20064;-79
2022/04/14 01:44:45;;;;;;;8.85;4.47;;;;;;;13.42;100.00;100995.75;5179026;28;20502;-79
2022/04/14 01:47:16;;;;;;;8.02;4.45;;;;;;;13.37;100.00;101002.97;5185659;28;20028;-79
2022/04/14 01:49:46;;;;;;;10.20;4.40;;;;;;;13.41;100.00;101010.66;5204837;28;20033;-78
2022/04/14 01:52:18;;;;;;;8.77;4.22;;;;;;;13.28;100.00;101008.59;5187300;28;20025;-79
2022/04/14 01:54:48;;;;;;;9.63;4.53;;;;;;;13.19;100.00;101004.56;5204118;28;20060;-79
2022/04/14 01:57:18;;;;;;;8.48;4.43;;;;;;;13.19;100.00;101009.81;5185106;28;20060;-79
2022/04/14 01:59:48;;;;;;;7.70;4.35;;;;;;;13.16;100.00;101012.53;5203002;28;20025;-79
2022/04/14 02:02:19;;;;;;;9.90;4.00;;;;;;;13.15;100.00;101017.84;5185244;28;20592;-79
2022/04/14 02:04:49;;;;;;;8.60;4.15;;;;;;;13.17;100.00;101013.38;5182276;28;20351;-80
2022/04/14 02:07:20;;;;;;;8.60;3.92;;;;;;;13.17;100.00;101016.88;5190077;28;20032;-79
2022/04/14 02:09:50;;;;;;;8.75;4.80;;;;;;;13.24;100.00;101020.13;5203394;28;20079;-79
2022/04/14 02:12:20;;;;;;;10.07;4.43;;;;;;;13.23;100.00;101013.16;5181584;28;20065;-79
2022/04/14 02:14:52;;;;;;;8.63;4.00;;;;;;;13.26;100.00;101023.53;5181793;28;20549;-79
2022/04/14 02:17:22;;;;;;;8.20;4.50;;;;;;;13.24;100.00;101023.59;5205660;28;20087;-79
2022/04/14 02:19:52;;;;;;;7.95;4.22;;;;;;;13.21;100.00;101020.25;5189541;28;20112;-78
2022/04/14 02:22:22;;;;;;;9.37;3.97;;;;;;;13.21;100.00;101023.72;5190257;28;20371;-79
2022/04/14 02:24:53;;;;;;;8.82;4.50;;;;;;;13.36;100.00;101017.88;5206780;28;20272;-79
2022/04/14 02:27:25;;;;;;;9.20;4.40;;;;;;;13.52;100.00;101010.22;5206227;28;20025;-79
2022/04/14 02:29:55;;;;;;;8.68;4.70;;;;;;;13.48;100.00;101011.25;5206592;28;20637;-79
2022/04/14 02:32:25;;;;;;;11.83;4.17;;;;;;;13.63;100.00;101008.88;5206245;28;20040;-79
2022/04/14 02:34:55;;;;;;;12.57;4.80;;;;;;;13.50;100.00;101017.31;5185490;28;20273;-79
2022/04/14 02:37:26;;;;;;;9.15;4.10;;;;;;;13.43;100.00;101019.31;5196452;28;20108;-79
2022/04/14 02:39:56;;;;;;;9.05;4.43;;;;;;;13.46;100.00;101023.59;5188344;28;20523;-79
2022/04/14 02:42:26;;;;;;;8.20;4.63;;;;;;;13.39;100.00;101017.75;5184405;28;20022;-79
2022/04/14 02:44:56;;;;;;;9.27;4.47;;;;;;;13.46;100.00;101015.72;5182202;28;20140;-79
2022/04/14 02:47:27;;;;;;;10.05;4.60;;;;;;;13.67;100.00;101014.84;5188260;28;20368;-79
2022/04/14 02:49:57;;;;;;;10.10;4.93;;;;;;;13.76;100.00;101023.19;5206354;28;20017;-79
2022/04/14 02:52:27;;;;;;;9.95;4.88;;;;;;;13.70;100.00;101018.22;5205246;28;20036;-79
2022/04/14 02:54:57;;;;;;;8.73;5.10;;;;;;;13.61;100.00;101020.38;5188107;28;20116;-79
2022/04/14 02:57:28;;;;;;;12.23;4.82;;;;;;;13.73;100.00;101012.00;5205755;28;20043;-79
2022/04/14 02:59:58;;;;;;;11.23;4.70;;;;;;;13.49;100.00;101012.97;5205854;28;20029;-79
2022/04/14 03:02:29;;;;;;;8.80;5.00;;;;;;;13.23;100.00;101008.75;5205193;28;20076;-79
2022/04/14 03:04:59;;;;;;;11.18;4.65;;;;;;;13.14;100.00;101013.50;5202360;28;20488;-79
2022/04/14 03:07:30;;;;;;;9.98;5.15;;;;;;;13.21;100.00;101013.22;5178420;28;20022;-79
2022/04/14 03:10:01;;;;;;;9.50;4.93;;;;;;;13.16;100.00;101012.53;5206901;28;20112;-79
2022/04/14 03:12:46;;;;;;;9.38;4.68;;;;;;;13.32;100.00;101010.16;5203477;28;20119;-78
2022/04/14 03:15:17;;;;;;;8.82;4.97;;;;;;;13.38;100.00;101013.41;5200086;28;20025;-79
2022/04/14 03:17:50;;;;;;;7.40;4.47;;;;;;;13.29;100.00;101013.78;5207508;28;20026;-78
2022/04/14 03:20:20;;;;;;;8.52;4.38;;;;;;;13.38;100.00;101018.66;5199986;28;20079;-79
2022/04/14 03:22:50;;;;;;;12.15;5.13;;;;;;;13.28;100.00;101024.34;5207563;28;20034;-78
2022/04/14 03:25:20;;;;;;;10.60;5.10;;;;;;;13.27;100.00;101002.47;5207537;28;20028;-80
2022/04/14 03:27:51;;;;;;;9.15;4.85;;;;;;;13.23;100.00;101010.53;5207251;28;20295;-80
2022/04/14 03:30:21;;;;;;;7.70;4.53;;;;;;;13.23;100.00;101015.78;5207179;28;20025;-79
2022/04/14 03:32:51;;;;;;;11.32;4.82;;;;;;;13.18;100.00;101007.22;5202277;28;20276;-79
2022/04/14 03:35:22;;;;;;;6.85;4.40;;;;;;;13.17;100.00;101005.50;5187193;28;20048;-79
2022/04/14 03:37:52;;;;;;;7.72;4.68;;;;;;;13.18;100.00;101007.22;5186209;28;20049;-79
2022/04/14 03:40:22;;;;;;;11.10;5.47;;;;;;;13.18;100.00;101002.84;5185708;28;20496;-80
2022/04/14 03:42:53;;;;;;;9.38;5.20;;;;;;;13.12;100.00;101004.84;5186162;28;20350;-79
2022/04/14 03:45:23;;;;;;;8.75;5.18;;;;;;;13.10;100.00;101001.44;5186731;28;20033;-79
2022/04/14 03:47:53;;;;;;;15.70;5.22;;;;;;;13.02;100.00;101004.34;5176859;28;20030;-80
2022/04/14 03:50:24;;;;;;;7.60;4.82;;;;;;;13.04;100.00;101001.69;5206081;28;20075;-80
2022/04/14 03:52:54;;;;;;;18.02;10.38;;;;;;;13.03;100.00;101003.44;5184226;28;20029;-80
2022/04/14 03:55:24;;;;;;;12.25;7.07;;;;;;;13.04;100.00;101010.38;5206673;28;20053;-79
2022/04/14 03:57:54;;;;;;;10.70;5.60;;;;;;;13.07;100.00;101009.44;5188674;28;20055;-79
2022/04/14 04:00:25;;;;;;;12.97;6.13;;;;;;;13.11;100.00;101000.50;5206682;28;20272;-79
2022/04/14 04:02:56;;;;;;;12.75;5.60;;;;;;;13.15;100.00;101002.09;5207412;28;20279;-80
2022/04/14 04:05:26;;;;;;;9.27;5.53;;;;;;;13.05;100.00;101006.00;5199049;28;20403;-79
2022/04/14 04:07:56;;;;;;;10.93;5.63;;;;;;;13.12;100.00;101007.47;5174130;28;20289;-79
2022/04/14 04:10:26;;;;;;;8.90;5.13;;;;;;;13.03;100.00;101007.84;5194042;28;20040;-80
2022/04/14 04:12:57;;;;;;;11.52;6.03;;;;;;;13.07;100.00;101009.44;5177827;28;20325;-80
2022/04/14 04:15:27;;;;;;;11.02;6.45;;;;;;;13.00;100.00;101014.06;5199560;28;20021;-80
2022/04/14 04:17:57;;;;;;;9.48;5.75;;;;;;;12.99;100.00;101016.72;5187671;28;20051;-79
2022/04/14 04:20:28;;;;;;;13.98;5.97;;;;;;;12.91;100.00;101013.53;5206355;28;20032;-80
2022/04/14 04:22:58;;;;;;;10.77;6.43;;;;;;;12.83;100.00;101014.72;5187596;28;20025;-80
2022/04/14 04:25:29;;;;;;;10.20;5.85;;;;;;;12.87;100.00;101008.44;5206071;28;20111;-80
2022/04/14 04:27:59;;;;;;;9.95;5.45;;;;;;;12.88;100.00;101011.84;5188620;28;20033;-80
2022/04/14 04:30:29;;;;;;;10.95;6.03;;;;;;;12.89;100.00;101017.97;5206264;28;20632;-80
2022/04/14 04:33:00;;;;;;;8.93;6.00;;;;;;;12.87;100.00;101022.44;5205990;28;20033;-81
2022/04/14 04:35:30;;;;;;;10.40;5.72;;;;;;;12.90;100.00;101017.91;5199828;28;20154;-80
2022/04/14 04:38:00;;;;;;;12.80;6.00;;;;;;;12.95;100.00;101011.69;5178707;28;20021;-78
2022/04/14 04:40:31;;;;;;;10.43;5.93;;;;;;;12.95;100.00;101009.06;5187727;28;20315;-78
2022/04/14 04:43:01;;;;;;;10.38;5.60;;;;;;;12.91;100.00;101013.53;5198702;28;20395;-78
2022/04/14 04:45:31;;;;;;;10.35;5.45;;;;;;;12.89;100.00;101016.19;5198776;28;20460;-79
2022/04/14 04:48:04;;;;;;;14.35;5.93;;;;;;;12.83;100.00;101020.81;5205587;28;20037;-78
2022/04/14 04:50:35;;;;;;;8.88;5.22;;;;;;;12.86;100.00;101010.22;5188104;28;20108;-78
2022/04/14 04:53:05;;;;;;;9.98;5.38;;;;;;;12.86;100.00;101020.72;5203098;28;20554;-78
2022/04/14 04:55:35;;;;;;;9.85;5.70;;;;;;;12.86;100.00;101011.97;5204224;28;20366;-78
2022/04/14 04:58:05;;;;;;;9.07;5.13;;;;;;;12.88;100.00;101015.41;5187242;28;20068;-78
2022/04/14 05:00:36;;;;;;;11.43;6.63;;;;;;;12.91;100.00;101013.53;5205057;28;20096;-79
2022/04/14 05:03:08;;;;;;;10.90;5.55;;;;;;;12.91;100.00;101018.75;5186785;28;20293;-79
2022/04/14 05:05:38;;;;;;;8.50;5.25;;;;;;;12.87;100.00;101021.56;5182541;28;20026;-78
2022/04/14 05:08:08;;;;;;;11.80;6.20;;;;;;;12.87;100.00;101011.06;5192243;28;20309;-79
2022/04/14 05:10:39;;;;;;;13.80;5.78;;;;;;;12.85;100.00;101012.88;5205622;28;20031;-79
2022/04/14 05:13:09;;;;;;;11.73;5.78;;;;;;;12.83;100.00;101015.56;5182128;28;20032;-78
2022/04/14 05:15:39;;;;;;;10.93;5.80;;;;;;;12.84;100.00;101022.50;5181635;28;20583;-77
2022/04/14 05:18:10;;;;;;;9.67;5.67;;;;;;;12.95;100.00;101024.78;5187802;28;20033;-77
2022/04/14 05:20:42;;;;;;;10.00;5.30;;;;;;;12.87;100.00;101027.69;5205655;28;20290;-79
2022/04/14 05:23:12;;;;;;;12.43;5.78;;;;;;;12.84;100.00;101029.53;5183358;28;20165;-78
2022/04/14 05:25:42;;;;;;;12.45;6.47;;;;;;;12.85;100.00;101032.09;5175708;28;20056;-78
2022/04/14 05:28:13;;;;;;;11.88;5.75;;;;;;;12.87;100.00;101035.53;5178919;28;20025;-80
2022/04/14 05:30:43;;;;;;;12.13;5.77;;;;;;;12.88;100.00;101033.75;5206538;28;20032;-80
2022/04/14 05:33:13;;;;;;;13.77;7.35;;;;;;;12.92;100.00;101036.22;5205142;28;20288;-80
2022/04/14 05:35:44;;;;;;;13.18;7.95;;;;;;;12.97;100.00;101039.53;5182307;28;20032;-80
2022/04/14 05:38:15;;;;;;;12.85;8.30;;;;;;;12.96;100.00;101043.09;5198094;28;20315;-79
2022/04/14 05:40:46;;;;;;;14.02;8.50;;;;;;;12.96;100.00;101040.47;5205424;28;20025;-80
2022/04/14 05:43:28;;;;;;;14.13;7.90;;;;;;;12.90;100.00;101038.03;5198236;28;20390;-79
2022/04/14 05:45:59;;;;;;;15.27;8.38;;;;;;;13.00;100.00;101047.28;5170718;28;20026;-78
2022/04/14 05:48:30;;;;;;;14.15;8.15;;;;;;;12.99;100.00;101042.97;5179528;28;20032;-79
2022/04/14 05:51:00;;;;;;;13.55;8.32;;;;;;;13.11;100.00;101047.75;5205490;28;20029;-76
2022/04/14 05:53:30;;;;;;;14.10;7.82;;;;;;;13.07;100.00;101049.63;5180007;28;20117;-79
2022/04/14 05:56:01;;;;;;;16.33;10.70;;;;;;;13.14;100.00;101053.75;5187689;28;20052;-76
2022/04/14 05:58:31;;;;;;;13.25;9.63;;;;;;;13.26;100.00;101047.16;5205236;28;20047;-80
2022/04/14 06:01:02;;;;;;;14.85;8.77;;;;;;;13.23;100.00;101048.13;5187894;28;20506;-79
2022/04/14 06:03:32;;;;;;;18.55;11.60;;;;;;;13.21;100.00;101063.09;5206020;28;20052;-82
2022/04/14 06:06:02;;;;;;;15.53;9.23;;;;;;;13.38;100.00;101068.53;5198585;28;20034;-82
2022/04/14 06:08:33;;;;;;;16.38;9.20;;;;;;;13.30;100.00;101075.00;5202105;28;20322;-80
2022/04/14 06:11:05;;;;;;;14.90;8.95;;;;;;;13.29;100.00;101068.03;5188588;28;20022;-80
2022/04/14 06:13:36;;;;;;;17.30;8.50;;;;;;;13.03;100.00;101070.81;5180089;28;20033;-79
2022/04/14 06:16:06;;;;;;;16.48;7.97;;;;;;;12.97;100.00;101071.03;5200596;28;20025;-80
2022/04/14 06:18:36;;;;;;;16.77;9.00;;;;;;;12.92;100.00;101070.31;5187883;28;20022;-80
2022/04/14 06:21:07;;;;;;;14.85;8.00;;;;;;;12.82;100.00;101071.56;5204619;28;20037;-80
2022/04/14 06:23:37;;;;;;;18.52;10.60;;;;;;;12.76;100.00;101063.94;5187861;28;20034;-80
2022/04/14 06:26:08;;;;;;;15.90;9.98;;;;;;;12.70;100.00;101066.78;5199187;28;20029;-82
2022/04/14 06:28:39;;;;;;;16.63;9.20;;;;;;;12.86;100.00;101064.44;5187198;28;20030;-80
2022/04/14 06:31:09;;;;;;;14.93;9.15;;;;;;;12.87;100.00;101063.53;5204925;28;20646;-80
2022/04/14 06:33:40;;;;;;;17.25;10.23;;;;;;;12.93;100.00;101062.41;5187801;28;20112;-81
2022/04/14 06:36:11;;;;;;;17.85;9.85;;;;;;;12.98;100.00;101071.91;5178293;28;20040;-80
2022/04/14 06:38:41;;;;;;;16.67;9.85;;;;;;;12.80;100.00;101069.94;5183037;28;20571;-80
2022/04/14 06:41:11;;;;;;;15.80;9.63;;;;;;;12.85;100.00;101068.81;5186296;28;20052;-81
2022/04/14 06:43:42;;;;;;;18.00;10.50;;;;;;;12.81;100.00;101077.72;5179754;28;20025;-80
2022/04/14 06:46:12;;;;;;;18.42;11.90;;;;;;;12.76;100.00;101082.28;5186566;28;20024;-80
2022/04/14 06:48:43;;;;;;;20.87;12.43;;;;;;;12.69;100.00;101091.31;5187088;28;20167;-80
2022/04/14 06:51:13;;;;;;;21.15;10.95;;;;;;;12.76;100.00;101087.53;5186340;28;20268;-81
2022/04/14 06:53:44;;;;;;;20.55;12.13;;;;;;;12.72;100.00;101095.56;5187685;28;20549;-81
2022/04/14 06:56:15;;;;;;;21.38;11.43;;;;;;;12.73;100.00;101095.53;5187769;28;20025;-79
2022/04/14 06:58:45;;;;;;;18.70;11.77;;;;;;;12.79;100.00;101087.41;5196695;28;20105;-79
2022/04/14 07:01:15;;;;;;;18.20;12.10;;;;;;;12.79;100.00;101092.66;5219673;28;20640;-79
2022/04/14 07:03:46;;;;;;;22.23;12.82;;;;;;;12.98;100.00;101089.34;5219363;28;20061;-79
2022/04/14 07:06:16;;;;;;;19.02;11.77;;;;;;;12.89;100.00;101094.06;5192868;28;20056;-81
2022/04/14 07:08:46;;;;;;;19.77;11.77;;;;;;;12.85;100.00;101097.69;5199226;28;20479;-81
2022/04/14 07:11:17;;;;;;;16.65;11.10;;;;;;;12.98;100.00;101104.22;5201046;28;20036;-81
2022/04/14 07:13:47;;;;;;;22.13;12.48;;;;;;;12.87;100.00;101103.75;5186743;28;20033;-81
2022/04/14 07:16:17;;;;;;;18.48;12.38;;;;;;;12.86;100.00;101102.03;5188599;28;20065;-81
2022/04/14 07:18:48;;;;;;;20.20;11.63;;;;;;;12.84;100.00;101113.50;5191754;28;20021;-82
2022/04/14 07:21:18;;;;;;;19.90;13.02;;;;;;;12.77;100.00;101109.38;5208321;28;20272;-82
2022/04/14 07:23:48;;;;;;;20.90;13.63;;;;;;;12.83;100.00;101104.75;5191536;28;20423;-82
2022/04/14 07:26:19;;;;;;;22.88;13.43;;;;;;;13.07;100.00;101109.16;5191513;28;20287;-82
2022/04/14 07:28:49;;;;;;;26.38;16.70;;;;;;;12.94;100.00;101105.25;5191269;28;20191;-81
2022/04/14 07:31:19;;;;;;;18.75;13.73;;;;;;;12.87;100.00;101114.25;5191089;28;20033;-81
2022/04/14 07:33:49;;;;;;;18.52;13.68;;;;;;;12.86;100.00;101123.03;5200718;28;20083;-79
2022/04/14 07:36:21;;;;;;;19.70;13.07;;;;;;;12.87;100.00;101118.63;5198974;28;20042;-81
2022/04/14 07:38:52;;;;;;;20.10;12.30;;;;;;;12.82;100.00;101108.28;5187608;28;20112;-80
2022/04/14 07:41:22;;;;;;;20.55;12.93;;;;;;;12.75;100.00;101112.06;5190605;28;20522;-81
2022/04/14 07:43:54;;;;;;;19.33;12.38;;;;;;;12.75;100.00;101109.44;5182821;28;20025;-80
2022/04/14 07:46:24;;;;;;;21.75;13.02;;;;;;;12.78;100.00;101111.94;5188094;28;20079;-81
2022/04/14 07:48:54;;;;;;;22.33;13.68;;;;;;;12.71;100.00;101117.44;5191377;28;20025;-80
2022/04/14 07:51:25;;;;;;;21.23;13.40;;;;;;;12.74;100.00;101120.84;5208151;28;20567;-81
2022/04/14 07:53:55;;;;;;;25.90;14.63;;;;;;;12.71;100.00;101122.69;5191075;28;20228;-81
2022/04/14 07:56:26;;;;;;;22.92;14.50;;;;;;;12.66;100.00;101122.84;5207872;28;20377;-82
2022/04/14 07:58:56;;;;;;;25.48;14.45;;;;;;;12.62;100.00;101113.38;5190540;28;20346;-82
2022/04/14 08:01:27;;;;;;;28.63;15.55;;;;;;;12.57;100.00;101120.56;5190735;28;20021;-80
2022/04/14 08:03:57;;;;;;;24.55;15.20;;;;;;;12.65;100.00;101120.31;5190876;28;20021;-81
2022/04/14 08:06:29;;;;;;;21.48;14.50;;;;;;;12.67;100.00;101124.56;5181471;28;20025;-81
2022/04/14 08:09:00;;;;;;;25.13;15.98;;;;;;;12.72;100.00;101121.78;5186772;28;20025;-82
2022/04/14 08:11:30;;;;;;;25.50;15.35;;;;;;;12.67;100.00;101121.94;5189044;28;20037;-82
2022/04/14 08:14:00;;;;;;;20.73;13.38;;;;;;;12.81;100.00;101126.72;5182453;28;20071;-81
2022/04/14 08:16:31;;;;;;;24.33;13.68;;;;;;;12.85;100.00;101133.56;5187928;28;20068;-82
2022/04/14 08:19:01;;;;;;;23.33;14.40;;;;;;;12.84;100.00;101127.44;5189385;28;20505;-82
2022/04/14 08:21:31;;;;;;;22.10;14.02;;;;;;;12.91;100.00;101129.78;5188810;28;20021;-80
2022/04/14 08:24:02;;;;;;;22.77;15.52;;;;;;;13.00;100.00;101134.75;5207212;28;20050;-81
2022/04/14 08:26:32;;;;;;;23.13;13.85;;;;;;;12.94;100.00;101128.88;5189851;28;20033;-82
2022/04/14 08:29:02;;;;;;;22.70;13.63;;;;;;;12.95;100.00;101129.75;5189928;28;20384;-81
2022/04/14 08:31:33;;;;;;;26.48;14.88;;;;;;;13.01;100.00;101135.59;5188612;28;20056;-81
2022/04/14 08:34:03;;;;;;;25.52;17.42;;;;;;;12.96;100.00;101127.03;5189779;28;20048;-80
2022/04/14 08:36:35;;;;;;;22.92;14.85;;;;;;;12.98;100.00;101133.09;5197717;28;20030;-81
2022/04/14 08:39:05;;;;;;;22.23;14.70;;;;;;;13.03;100.00;101128.56;5204160;28;20036;-80
2022/04/14 08:41:39;;;;;;;23.30;13.25;;;;;;;13.07;100.00;101119.66;5189268;28;20021;-79
2022/04/14 08:44:13;;;;;;;23.02;13.57;;;;;;;13.11;100.00;101123.88;5178838;28;20480;-81
2022/04/14 08:46:43;;;;;;;20.63;12.93;;;;;;;13.26;100.00;101120.66;5205706;28;20100;-81
2022/04/14 08:49:16;;;;;;;26.08;14.35;;;;;;;13.19;100.00;101111.28;5188731;28;20112;-81
2022/04/14 08:51:47;;;;;;;20.95;12.63;;;;;;;13.20;100.00;101116.50;5206579;28;20059;-80
2022/04/14 08:54:19;;;;;;;20.35;12.45;;;;;;;13.10;100.00;101119.53;5189271;28;20513;-79
2022/04/14 08:56:51;;;;;;;18.50;12.23;;;;;;;13.22;100.00;101119.09;5199255;28;20025;-81
2022/04/14 08:59:22;;;;;;;20.25;11.93;;;;;;;13.18;100.00;101117.47;5189122;28;20087;-80
2022/04/14 09:01:52;;;;;;;20.05;12.80;;;;;;;13.37;100.00;101121.13;5189467;28;20017;-82
2022/04/14 09:04:23;;;;;;;18.63;11.23;;;;;;;13.25;100.00;101119.78;5189117;28;20033;-83
2022/04/14 09:06:53;;;;;;;20.17;10.73;;;;;;;13.40;100.00;101119.22;5178830;28;20021;-81
2022/04/14 09:09:24;;;;;;;17.77;11.38;;;;;;;13.50;100.00;101124.97;5188801;28;20025;-81
2022/04/14 09:11:54;;;;;;;17.67;10.55;;;;;;;13.52;100.00;101113.50;5205044;28;20029;-82
2022/04/14 09:14:25;;;;;;;15.55;9.85;;;;;;;13.54;100.00;101111.66;5178527;28;20209;-82
2022/04/14 09:16:55;;;;;;;14.30;8.60;;;;;;;13.72;100.00;101117.97;5205042;28;20025;-82
2022/04/14 09:19:29;;;;;;;12.87;7.67;;;;;;;13.67;100.00;101117.28;5188482;28;20029;-82
2022/04/14 09:22:02;;;;;;;11.48;6.75;;;;;;;13.74;100.00;101116.16;5187181;28;20359;-82
2022/04/14 09:24:53;;;;;;;10.25;6.38;;;;;;;13.76;100.00;101122.19;5206607;28;20029;-82
2022/04/14 09:27:29;;;;;;;12.52;7.30;;;;;;;13.76;100.00;101123.03;5197832;28;20021;-80
2022/04/14 09:30:03;;;;;;;14.15;8.32;;;;;;;13.89;100.00;101118.16;5205452;28;20018;-81
2022/04/14 09:32:36;;;;;;;15.00;9.80;;;;;;;14.07;100.00;101114.78;5186982;28;20025;-81
2022/04/14 09:35:16;;;;;;;16.70;10.20;;;;;;;14.22;100.00;101112.41;5182943;28;20399;-82
2022/04/14 09:38:08;;;;;;;18.13;9.40;;;;;;;14.15;100.00;101115.31;5180279;28;20028;-81
2022/04/14 09:40:59;;;;;;;12.13;8.95;;;;;;;14.28;100.00;101113.91;5202599;28;20048;-83
2022/04/14 09:43:32;;;;;;;14.68;9.02;;;;;;;14.32;100.00;101123.38;5178073;28;20025;-82
2022/04/14 09:46:02;;;;;;;14.45;8.88;;;;;;;14.55;100.00;101115.38;5198964;28;20029;-82
2022/04/14 09:48:32;;;;;;;13.90;8.68;;;;;;;14.43;100.00;101110.66;5188682;28;20022;-82
2022/04/14 09:51:03;;;;;;;13.27;9.38;;;;;;;14.29;100.00;101113.00;5205950;28;20027;-80
2022/04/14 09:53:33;;;;;;;16.80;10.18;;;;;;;14.36;100.00;101114.44;5188582;28;20029;-79
2022/04/14 09:56:04;;;;;;;17.27;9.77;;;;;;;14.38;100.00;101112.59;5188890;28;20037;-82
2022/04/14 09:58:34;;;;;;;14.48;9.25;;;;;;;14.43;100.00;101118.53;5206847;28;20100;-81
2022/04/14 10:01:04;;;;;;;15.93;9.65;;;;;;;14.24;100.00;101133.38;5188339;28;20025;-82
2022/04/14 10:03:35;;;;;;;18.30;11.50;;;;;;;14.14;100.00;101124.13;5200818;28;20036;-81
2022/04/14 10:06:06;;;;;;;23.27;12.65;;;;;;;14.02;100.00;101125.47;5180877;28;20132;-80
2022/04/14 10:08:51;;;;;;;18.52;13.23;;;;;;;13.89;100.00;101123.44;5184122;28;20438;-81
2022/04/14 10:11:34;;;;;;;18.73;13.20;;;;;;;13.94;100.00;101119.66;5180967;28;20222;-82
2022/04/14 10:14:13;;;;;;;19.58;13.20;;;;;;;14.05;100.00;101120.09;5182778;28;20517;-82
2022/04/14 10:16:45;;;;;;;20.75;13.45;;;;;;;14.15;100.00;101120.56;5187382;28;20391;-82
2022/04/14 10:19:19;;;;;;;19.48;13.20;;;;;;;14.19;100.00;101122.19;5188494;28;20022;-82
2022/04/14 10:21:50;;;;;;;17.33;11.65;;;;;;;14.07;100.00;101117.41;5198219;28;20025;-81
2022/04/14 10:24:24;;;;;;;20.88;13.43;;;;;;;14.22;100.00;101122.91;5205402;28;20032;-82
2022/04/14 10:27:11;;;;;;;20.35;14.13;;;;;;;14.08;100.00;101122.59;5205430;28;20044;-81
2022/04/14 10:29:49;;;;;;;20.55;13.63;;;;;;;14.08;100.00;101125.22;5205772;28;20404;-82
2022/04/14 10:32:24;;;;;;;18.60;11.70;;;;;;;14.04;100.00;101123.63;5188027;28;20038;-81
2022/04/14 10:34:55;;;;;;;17.63;11.02;;;;;;;14.18;100.00;101120.47;5186917;28;20357;-80
2022/04/14 10:37:32;;;;;;;16.83;10.43;;;;;;;14.22;100.00;101116.81;5200160;28;20022;-81
2022/04/14 10:40:03;;;;;;;13.57;9.50;;;;;;;14.21;100.00;101122.97;5209094;28;20116;-82
2022/04/14 10:42:34;;;;;;;15.10;9.70;;;;;;;14.29;100.00;101119.09;5186467;28;20478;-82
2022/04/14 10:45:17;;;;;;;17.17;9.40;;;;;;;14.15;100.00;101115.31;5202330;28;20033;-80
2022/04/14 10:47:50;;;;;;;14.25;9.77;;;;;;;14.33;100.00;101104.06;5190801;28;20025;-80
2022/04/14 10:50:39;;;;;;;16.00;9.43;;;;;;;14.46;100.00;101100.00;5183677;28;20081;-82
2022/04/14 10:53:20;;;;;;;14.90;9.35;;;;;;;14.39;100.00;101109.06;5208975;28;20112;-81
2022/04/14 10:55:50;;;;;;;15.23;9.57;;;;;;;14.44;100.00;101101.84;5183427;28;20029;-82
2022/04/14 10:58:27;;;;;;;15.43;9.82;;;;;;;14.58;100.00;101104.72;5191385;28;20028;-81
2022/04/14 11:00:57;;;;;;;15.38;10.32;;;;;;;14.72;100.00;101104.97;5190835;28;20120;-79
2022/04/14 11:03:48;;;;;;;14.37;10.33;;;;;;;14.70;100.00;101106.81;5191977;28;20111;-79
2022/04/14 11:06:45;;;;;;;14.98;9.55;;;;;;;14.87;100.00;101103.34;5182129;28;20770;-81
2022/04/14 11:09:44;;;;;;;14.68;9.73;;;;;;;15.05;100.00;101097.25;5176835;28;20064;-80
2022/04/14 11:12:22;;;;;;;16.38;9.73;;;;;;;15.09;100.00;101103.25;5185625;28;20021;-81
2022/04/14 11:14:58;;;;;;;16.25;9.68;;;;;;;15.10;100.00;101107.59;5179065;28;20115;-80
2022/04/14 11:20:45;;;;;;;17.23;10.73;;;;;;;15.46;100.00;101112.06;5200536;28;20045;-80
2022/04/14 11:23:15;;;;;;;16.67;9.75;;;;;;;15.43;100.00;101113.97;5190433;28;20029;-82
2022/04/14 11:25:47;;;;;;;15.18;9.63;;;;;;;15.59;100.00;101107.06;5191053;28;20032;-82
2022/04/14 11:28:25;;;;;;;17.25;10.60;;;;;;;15.49;100.00;101109.28;5190871;28;20087;-82
2022/04/14 11:30:56;;;;;;;17.88;10.85;;;;;;;15.52;100.00;101113.56;5183969;28;20029;-80
2022/04/14 11:33:28;;;;;;;15.63;10.13;;;;;;;15.90;100.00;101109.94;5189706;28;20483;-82